Spirit Lake, IA

5:07 AM CDT on April 27, 2017 (GMT -0500)
Dickinson Co. Courthouse | | Change Station

Elev 1470 ft 43.42 °N, 95.10 °W | Updated 2 seconds ago

Overcast
Overcast
29.1 °F
Feels Like 22 °F
N
6.6
Wind Variable Wind from NNW
Gusts 17.3 mph

Today
High -- | Low -- °F
--% Chance of Precip.
Yesterday
High -- | Low -- °F
Precip. -- in
Pressure 29.59 in
Visibility 4.0 miles
Clouds Mostly Cloudy 800 ft
Overcast 1300 ft
Windchill 22 °F
Dew Point 27 °F
Humidity 93%
Rainfall 0.00 in
Snow Depth Not available.
6:18 AM 8:18 PM
New Moon, 1% visible
METAR KMJQ 270955Z AUTO 31015G19KT 4SM BR BKN008 OVC013 M01/M02 A2959 RMK AO2
Pressure 29.59 in
Visibility 4.0 miles
Clouds Mostly Cloudy 800 ft
Overcast 1300 ft
Windchill 22 °F
Dew Point 27 °F
Humidity 93%
Rainfall 0.00 in
Snow Depth Not available.
6:18 AM 8:18 PM
New Moon, 1% visible
METAR KMJQ 270955Z AUTO 31015G19KT 4SM BR BKN008 OVC013 M01/M02 A2959 RMK AO2

Get Severe Weather Alerts

Thanks for signing up!

Be on the lookout for a verification email in your inbox.

You'll start receiving the daily forecast at 8 AM.

×

10-Day Weather Forecast

Almanac

Astronomy

Apr. 27, 2017 Rise Set
Actual Time
Civil Twilight
Nautical Twilight
Astronomical Twilight
Moon
Length of Visible Light
Length of Day
Tomorrow will be .
, % of the Moon is Illuminated

Today's Extremes

State Highs State Lows

Community

WunderPhotos

WunderBlog® & News

Nearby

Air Quality

  Air Quality AQ Index Pollutant
Not available.

Snow Depth

Station Depth Elevation

Earthquake Activity

City Distance Mag. Time & Date
Minimum magnitude displayed is 2.5.

Coastal Water Temperatures

Place Temperature

Stations

Nearby Weather Stations

Station Location Temp. Windchill Dew Point Humidity Wind Precip. Elev Updated Type
                   

Watches & Warnings

There are currently no watches in effect.